Time;durP1;ratioP1;P1;durP2;ratioP2;P2;SDS_P1;SDS_P2;PMS_P1;PMS_P2;Temp;Humidity;BMP_temperature;BMP_pressure;BME280_temperature;BME280_humidity;BME280_pressure;Samples;Min_cycle;Max_cycle;Signal;HPM_P1;HPM_P2
2023/03/12 00:01:36;;;;;;;15.20;10.00;;;0.30;18.70;;;;;;5034441;28;20914;-44
2023/03/12 00:04:02;;;;;;;14.83;10.90;;;0.20;69.90;;;;;;5034513;28;20175;-46
2023/03/12 00:06:28;;;;;;;17.57;11.80;;;0.20;55.70;;;;;;5034345;28;20898;-48
2023/03/12 00:08:54;;;;;;;13.13;9.90;;;0.20;73.00;;;;;;5035989;28;20512;-45
2023/03/12 00:11:20;;;;;;;14.33;10.87;;;0.10;99.90;;;;;;5033668;28;20190;-46
2023/03/12 00:13:50;;;;;;;13.23;9.77;;;0.10;99.90;;;;;;5035106;28;20395;-44
2023/03/12 00:16:16;;;;;;;16.73;10.20;;;0.10;99.90;;;;;;5033924;28;20437;-45
2023/03/12 00:18:42;;;;;;;17.93;11.13;;;0.00;99.90;;;;;;5033300;28;20699;-46
2023/03/12 00:21:08;;;;;;;13.63;9.27;;;0.00;99.90;;;;;;5034026;28;20817;-52
2023/03/12 00:23:34;;;;;;;14.33;10.83;;;-0.10;99.90;;;;;;5034760;28;20425;-44
2023/03/12 00:26:06;;;;;;;17.80;10.50;;;-0.10;99.90;;;;;;5033846;28;20470;-44
2023/03/12 00:28:32;;;;;;;13.30;9.77;;;-0.10;1.00;;;;;;5034603;28;20751;-46
2023/03/12 00:30:57;;;;;;;13.37;8.70;;;-0.10;1.00;;;;;;5034466;28;20507;-44
2023/03/12 00:33:25;;;;;;;12.10;9.63;;;-0.10;1.00;;;;;;5034434;28;20870;-45
2023/03/12 00:35:51;;;;;;;14.80;10.20;;;-0.10;1.00;;;;;;5031081;28;20194;-46
2023/03/12 00:38:16;;;;;;;12.50;9.73;;;-0.10;1.00;;;;;;5030994;28;20429;-46
2023/03/12 00:40:42;;;;;;;15.20;9.80;;;-0.20;1.00;;;;;;5027362;28;20672;-46
2023/03/12 00:43:08;;;;;;;15.73;11.00;;;-0.20;1.00;;;;;;5031821;28;20425;-47
2023/03/12 00:45:33;;;;;;;18.20;11.57;;;-0.20;1.00;;;;;;5031582;28;20179;-46
2023/03/12 00:47:59;;;;;;;12.97;10.07;;;-0.30;12.60;;;;;;5028645;28;20237;-45
2023/03/12 00:50:25;;;;;;;14.77;10.83;;;-0.30;99.90;;;;;;5031710;28;20236;-45
2023/03/12 00:52:50;;;;;;;13.93;11.27;;;-0.30;99.90;;;;;;5030202;28;20409;-44
2023/03/12 00:55:16;;;;;;;14.70;11.03;;;-0.30;99.90;;;;;;5031073;28;20265;-47
2023/03/12 00:57:42;;;;;;;15.97;11.47;;;-0.30;99.90;;;;;;5032655;28;20187;-45
2023/03/12 01:00:10;;;;;;;18.17;11.17;;;-0.30;99.90;;;;;;5034290;28;20182;-45
2023/03/12 01:02:37;;;;;;;18.27;11.07;;;-0.40;99.90;;;;;;5035164;28;20197;-44
2023/03/12 01:05:04;;;;;;;16.07;10.33;;;-0.40;99.90;;;;;;5035732;28;20417;-46
2023/03/12 01:07:29;;;;;;;14.00;10.83;;;-0.40;1.00;;;;;;5036863;28;20488;-44
2023/03/12 01:09:56;;;;;;;14.60;10.40;;;-0.40;1.00;;;;;;5034964;28;20421;-46
2023/03/12 01:12:21;;;;;;;14.63;10.37;;;-0.40;1.00;;;;;;5036193;28;20242;-46
2023/03/12 01:14:47;;;;;;;10.63;9.40;;;-0.30;1.00;;;;;;5036847;28;20413;-45
2023/03/12 01:17:13;;;;;;;13.87;9.77;;;-0.30;1.00;;;;;;5037091;28;20504;-45
2023/03/12 01:19:39;;;;;;;15.90;11.60;;;-0.30;1.00;;;;;;5036505;28;20178;-46
2023/03/12 01:22:04;;;;;;;13.03;9.83;;;-0.30;1.00;;;;;;5035925;28;20174;-44
2023/03/12 01:24:30;;;;;;;16.70;10.87;;;-0.30;1.00;;;;;;5035083;28;20273;-47
2023/03/12 01:26:56;;;;;;;16.70;10.53;;;-0.20;1.00;;;;;;5036127;28;20226;-44
2023/03/12 01:29:22;;;;;;;13.87;11.97;;;-0.20;1.00;;;;;;5033759;28;20174;-46
2023/03/12 01:31:47;;;;;;;12.67;10.27;;;-0.10;1.00;;;;;;5034720;28;20888;-46
2023/03/12 01:34:13;;;;;;;12.00;10.17;;;-0.10;1.00;;;;;;5034409;28;20370;-44
2023/03/12 01:36:39;;;;;;;15.63;11.00;;;-0.10;1.00;;;;;;5035320;28;20186;-45
2023/03/12 01:39:05;;;;;;;12.23;9.70;;;-0.10;1.00;;;;;;5034564;28;20469;-46
2023/03/12 01:41:32;;;;;;;13.97;11.47;;;-0.10;1.00;;;;;;5035133;28;20486;-46
2023/03/12 01:44:02;;;;;;;15.90;11.30;;;0.00;1.00;;;;;;5036065;28;20504;-43
2023/03/12 01:46:41;;;;;;;13.77;10.23;;;0.00;1.00;;;;;;5036317;28;20469;-45
2023/03/12 01:49:21;;;;;;;14.90;9.93;;;0.00;1.00;;;;;;5035821;28;20869;-43
2023/03/12 01:52:05;;;;;;;10.67;9.23;;;0.10;1.00;;;;;;5033348;28;20437;-44
2023/03/12 01:54:46;;;;;;;13.63;10.27;;;0.10;1.00;;;;;;5033599;28;20413;-46
2023/03/12 01:57:16;;;;;;;16.60;10.93;;;0.10;1.00;;;;;;5032788;28;20440;-45
2023/03/12 01:59:48;;;;;;;21.53;11.50;;;0.10;1.00;;;;;;5033926;28;20421;-45
2023/03/12 02:02:15;;;;;;;15.60;10.83;;;0.20;1.00;;;;;;5032735;28;20444;-49
2023/03/12 02:04:42;;;;;;;17.43;11.37;;;0.20;1.00;;;;;;5050986;28;20445;-44
2023/03/12 02:07:10;;;;;;;12.73;9.33;;;0.30;1.00;;;;;;5033734;28;20523;-44
2023/03/12 02:09:39;;;;;;;16.80;10.57;;;0.30;1.00;;;;;;5033209;28;20494;-47
2023/03/12 02:12:06;;;;;;;17.00;9.80;;;0.40;1.00;;;;;;5033241;28;20452;-46
2023/03/12 02:14:31;;;;;;;13.27;10.20;;;0.40;1.00;;;;;;5033897;28;20460;-44
2023/03/12 02:16:57;;;;;;;15.67;10.50;;;0.40;1.00;;;;;;5032971;28;20791;-46
2023/03/12 02:19:34;;;;;;;13.40;9.70;;;0.50;1.00;;;;;;5034758;28;20189;-45
2023/03/12 02:22:01;;;;;;;15.70;10.70;;;0.50;99.90;;;;;;5035539;28;20273;-45
2023/03/12 02:24:52;;;;;;;12.60;9.90;;;0.50;99.90;;;;;;5035049;28;20425;-44
2023/03/12 02:27:18;;;;;;;12.10;10.17;;;0.50;99.90;;;;;;5035766;28;20590;-43
2023/03/12 02:29:45;;;;;;;14.40;9.60;;;0.50;99.90;;;;;;5035837;28;20515;-44
2023/03/12 02:32:19;;;;;;;12.43;9.60;;;0.50;99.90;;;;;;5034680;28;20776;-45
2023/03/12 02:34:46;;;;;;;16.87;10.50;;;0.50;1.00;;;;;;5035311;28;20417;-48
2023/03/12 02:37:12;;;;;;;12.60;10.13;;;0.60;1.00;;;;;;5038166;28;20743;-45
2023/03/12 02:39:39;;;;;;;12.40;9.50;;;0.60;1.00;;;;;;5041038;28;20413;-46
2023/03/12 02:42:05;;;;;;;11.53;9.13;;;0.60;1.00;;;;;;5039039;28;20574;-46
2023/03/12 02:44:32;;;;;;;11.30;8.47;;;0.70;1.00;;;;;;5039058;28;20500;-44
2023/03/12 02:47:00;;;;;;;9.80;8.50;;;0.70;1.00;;;;;;5037550;28;20591;-46
2023/03/12 02:49:28;;;;;;;11.13;8.43;;;0.70;1.00;;;;;;5038843;28;20440;-48
2023/03/12 02:51:54;;;;;;;9.73;7.83;;;0.70;1.00;;;;;;5038675;28;20433;-44
2023/03/12 02:54:21;;;;;;;9.47;7.17;;;0.80;1.00;;;;;;5038594;28;20427;-44
2023/03/12 02:56:47;;;;;;;7.80;6.20;;;0.80;1.00;;;;;;5038027;28;20493;-46
2023/03/12 02:59:13;;;;;;;8.60;6.60;;;0.80;1.00;;;;;;5038253;28;20589;-45
2023/03/12 03:01:40;;;;;;;10.43;6.33;;;0.90;99.90;;;;;;5040054;28;20893;-43
2023/03/12 03:04:06;;;;;;;9.53;6.70;;;0.90;99.90;;;;;;5039741;28;20422;-46
2023/03/12 03:06:33;;;;;;;8.77;6.20;;;0.90;1.00;;;;;;5038226;28;20476;-45
2023/03/12 03:08:59;;;;;;;8.13;5.10;;;1.00;1.00;;;;;;5037055;28;20417;-44
2023/03/12 03:11:25;;;;;;;7.53;5.17;;;1.00;99.90;;;;;;5036045;28;20498;-47
2023/03/12 03:13:52;;;;;;;6.20;4.50;;;1.10;1.00;;;;;;5037526;28;20185;-46
2023/03/12 03:16:18;;;;;;;8.40;5.20;;;1.10;99.90;;;;;;5037867;28;20828;-44
2023/03/12 03:18:43;;;;;;;6.63;4.70;;;1.10;99.90;;;;;;5037308;28;20424;-44
2023/03/12 03:21:15;;;;;;;6.33;4.40;;;1.20;99.90;;;;;;5037602;28;20186;-44
2023/03/12 03:23:47;;;;;;;6.63;4.40;;;1.20;21.80;;;;;;5038365;28;20556;-44
2023/03/12 03:26:14;;;;;;;5.40;4.33;;;1.20;6.70;;;;;;5038221;28;20443;-45
2023/03/12 03:28:40;;;;;;;5.37;3.93;;;1.30;1.00;;;;;;5037757;28;20728;-44
2023/03/12 03:31:06;;;;;;;8.33;4.90;;;1.30;1.00;;;;;;5037995;28;20519;-46
2023/03/12 03:33:34;;;;;;;8.60;4.77;;;1.30;1.00;;;;;;5039233;28;20262;-48
2023/03/12 03:36:00;;;;;;;7.30;4.00;;;1.30;1.00;;;;;;5038906;28;20498;-47
2023/03/12 03:38:26;;;;;;;9.17;4.70;;;1.40;99.90;;;;;;5038933;28;20413;-45
2023/03/12 03:40:52;;;;;;;5.50;4.27;;;1.40;99.90;;;;;;5038986;28;20540;-44
2023/03/12 03:43:18;;;;;;;6.53;4.77;;;1.40;99.90;;;;;;5037832;28;20425;-49
2023/03/12 03:45:44;;;;;;;6.50;4.23;;;1.40;99.90;;;;;;5039086;28;20444;-43
2023/03/12 03:48:10;;;;;;;7.70;4.40;;;1.50;99.90;;;;;;5037659;28;20719;-46
2023/03/12 03:50:40;;;;;;;11.40;5.97;;;1.50;99.90;;;;;;5038506;28;20208;-45
2023/03/12 03:53:07;;;;;;;7.80;5.03;;;1.50;99.90;;;;;;5038446;28;20417;-43
2023/03/12 03:55:36;;;;;;;5.10;4.10;;;1.60;99.90;;;;;;5038772;28;20703;-47
2023/03/12 03:58:02;;;;;;;6.00;4.70;;;1.60;99.90;;;;;;5038870;28;20417;-44
2023/03/12 04:00:27;;;;;;;9.23;4.53;;;1.60;1.00;;;;;;5038312;28;20442;-45
2023/03/12 04:02:54;;;;;;;5.80;3.90;;;1.70;1.00;;;;;;5037527;28;20190;-46
2023/03/12 04:05:20;;;;;;;10.87;4.60;;;1.60;1.00;;;;;;5037036;28;20614;-44
2023/03/12 04:07:46;;;;;;;5.40;4.03;;;1.60;1.00;;;;;;5036900;28;20668;-43
2023/03/12 04:10:12;;;;;;;6.17;4.40;;;1.60;1.00;;;;;;5037562;28;20845;-44
2023/03/12 04:12:37;;;;;;;7.17;4.93;;;1.60;10.10;;;;;;5037044;28;20195;-48
2023/03/12 04:15:04;;;;;;;6.13;5.27;;;1.60;1.00;;;;;;5037313;28;20811;-45
2023/03/12 04:17:29;;;;;;;5.70;4.27;;;1.60;1.00;;;;;;5037033;28;20193;-47
2023/03/12 04:19:55;;;;;;;6.50;4.70;;;1.60;1.00;;;;;;5037303;28;20421;-47
2023/03/12 04:22:21;;;;;;;8.47;5.17;;;1.60;1.90;;;;;;5037266;28;20272;-45
2023/03/12 04:24:46;;;;;;;8.43;4.93;;;1.60;50.60;;;;;;5037718;28;20496;-47
2023/03/12 04:27:12;;;;;;;6.60;5.70;;;1.70;99.50;;;;;;5037767;28;20247;-46
2023/03/12 04:29:39;;;;;;;8.37;5.70;;;1.70;9.60;;;;;;5038689;28;20226;-45
2023/03/12 04:32:06;;;;;;;6.00;5.10;;;1.70;61.10;;;;;;5039299;28;20194;-47
2023/03/12 04:34:31;;;;;;;5.50;5.00;;;1.80;99.90;;;;;;5037066;28;20724;-47
2023/03/12 04:36:57;;;;;;;6.20;5.53;;;1.80;99.90;;;;;;5037237;28;20441;-46
2023/03/12 04:39:23;;;;;;;8.10;5.17;;;1.80;99.90;;;;;;5036751;28;20186;-44
2023/03/12 04:41:48;;;;;;;6.50;5.40;;;1.80;99.90;;;;;;5036445;28;20268;-46
2023/03/12 04:44:14;;;;;;;9.80;5.30;;;1.90;99.90;;;;;;5036807;28;20320;-45
2023/03/12 04:46:41;;;;;;;7.10;4.87;;;1.90;1.00;;;;;;5036612;28;20218;-44
2023/03/12 04:49:06;;;;;;;7.13;6.10;;;1.80;1.00;;;;;;5037189;28;20171;-45
2023/03/12 04:51:32;;;;;;;8.67;5.17;;;1.80;1.00;;;;;;5038177;28;20424;-44
2023/03/12 04:53:58;;;;;;;6.40;5.53;;;1.90;55.50;;;;;;5038101;28;20205;-47
2023/03/12 04:56:23;;;;;;;10.00;5.40;;;1.90;79.10;;;;;;5037693;28;20429;-44
2023/03/12 04:58:50;;;;;;;7.70;5.60;;;1.90;95.90;;;;;;5034560;28;20170;-47
2023/03/12 05:01:31;;;;;;;7.03;5.03;;;2.00;1.00;;;;;;5035934;28;20182;-46
2023/03/12 05:03:57;;;;;;;6.37;5.23;;;2.00;1.00;;;;;;5036241;28;20487;-47
2023/03/12 05:06:24;;;;;;;9.00;5.57;;;2.10;99.90;;;;;;5034815;28;20839;-47
2023/03/12 05:08:50;;;;;;;5.60;5.00;;;2.10;99.90;;;;;;5034789;28;20187;-46
2023/03/12 05:11:16;;;;;;;6.80;5.47;;;2.20;99.90;;;;;;5034555;28;20775;-48
2023/03/12 05:13:42;;;;;;;7.37;5.10;;;2.20;1.00;;;;;;5035182;28;20421;-46
2023/03/12 05:16:08;;;;;;;7.67;5.70;;;2.30;99.90;;;;;;5035221;28;20831;-48
2023/03/12 05:18:34;;;;;;;5.20;4.40;;;2.30;99.90;;;;;;5035597;28;20658;-45
2023/03/12 05:21:05;;;;;;;5.60;4.80;;;2.30;1.00;;;;;;5036115;28;20453;-48
2023/03/12 05:23:31;;;;;;;7.17;4.90;;;2.30;1.00;;;;;;5037057;28;20533;-46
2023/03/12 05:25:57;;;;;;;6.80;5.30;;;2.40;1.00;;;;;;5036858;28;20807;-46
2023/03/12 05:28:27;;;;;;;7.80;4.70;;;2.40;1.00;;;;;;5037587;28;20475;-46
2023/03/12 05:31:08;;;;;;;7.13;4.90;;;2.50;1.00;;;;;;5035922;28;20226;-45
2023/03/12 05:33:33;;;;;;;5.57;5.03;;;2.50;1.00;;;;;;5037152;28;20432;-49
2023/03/12 05:35:59;;;;;;;7.50;4.97;;;2.50;1.00;;;;;;5037338;28;20845;-48
2023/03/12 05:38:25;;;;;;;5.80;5.13;;;2.50;99.90;;;;;;5036799;28;20190;-46
2023/03/12 05:40:55;;;;;;;7.97;5.87;;;2.60;1.00;;;;;;5035343;28;20196;-44
2023/03/12 05:43:21;;;;;;;7.87;5.30;;;2.60;1.00;;;;;;5036650;28;20183;-47
2023/03/12 05:45:47;;;;;;;6.10;5.50;;;2.60;99.90;;;;;;5036815;28;20473;-46
2023/03/12 05:48:12;;;;;;;5.80;4.97;;;2.60;99.90;;;;;;5036674;28;20497;-48
2023/03/12 05:50:38;;;;;;;8.93;5.30;;;2.60;99.90;;;;;;5035324;28;20213;-47
2023/03/12 05:53:04;;;;;;;6.03;5.37;;;2.70;1.00;;;;;;5035781;28;20174;-48
2023/03/12 05:55:30;;;;;;;8.27;6.93;;;2.60;1.00;;;;;;5035188;28;20627;-48
2023/03/12 05:57:55;;;;;;;6.60;5.20;;;2.70;14.20;;;;;;5034564;28;20187;-44
2023/03/12 06:00:21;;;;;;;5.80;5.20;;;2.60;99.90;;;;;;5035687;28;20209;-46
2023/03/12 06:02:47;;;;;;;5.60;5.10;;;2.60;99.90;;;;;;5035166;28;20181;-44
2023/03/12 06:05:13;;;;;;;9.37;5.13;;;2.60;1.00;;;;;;5036056;28;20429;-47
2023/03/12 06:07:38;;;;;;;7.50;5.73;;;2.60;99.90;;;;;;5034914;28;20520;-45
2023/03/12 06:10:04;;;;;;;6.40;5.80;;;2.70;99.90;;;;;;5036059;28;20174;-44
2023/03/12 06:12:30;;;;;;;8.20;5.37;;;2.70;1.00;;;;;;5036113;28;20461;-44
2023/03/12 06:14:57;;;;;;;6.87;5.27;;;2.80;1.00;;;;;;5036366;28;20409;-45
2023/03/12 06:17:22;;;;;;;5.90;5.30;;;2.80;1.00;;;;;;5036653;28;20178;-45
2023/03/12 06:19:52;;;;;;;9.20;5.20;;;2.90;99.90;;;;;;5036643;28;20419;-44
2023/03/12 06:22:18;;;;;;;6.73;6.00;;;2.90;1.00;;;;;;5034973;28;20213;-44
2023/03/12 06:24:46;;;;;;;9.13;5.57;;;2.90;1.00;;;;;;5035830;28;20421;-42
2023/03/12 06:27:12;;;;;;;7.00;5.77;;;2.90;1.00;;;;;;5035411;28;20473;-45
2023/03/12 06:29:39;;;;;;;7.00;5.10;;;3.00;1.00;;;;;;5036784;28;20472;-46
2023/03/12 06:32:04;;;;;;;10.33;5.40;;;3.10;1.00;;;;;;5036549;28;20437;-46
2023/03/12 06:34:30;;;;;;;6.20;5.40;;;3.10;1.00;;;;;;5036296;28;20684;-44
2023/03/12 06:36:56;;;;;;;6.60;5.90;;;3.10;99.90;;;;;;5036092;28;20189;-45
2023/03/12 06:39:21;;;;;;;9.10;5.50;;;3.10;99.90;;;;;;5036496;28;20231;-46
2023/03/12 06:41:47;;;;;;;7.00;5.90;;;3.00;99.90;;;;;;5036594;28;20232;-44
2023/03/12 06:44:13;;;;;;;5.60;4.80;;;3.00;1.00;;;;;;5036507;28;20409;-46
2023/03/12 06:46:39;;;;;;;8.30;6.20;;;3.00;1.00;;;;;;5036115;28;20301;-45
2023/03/12 06:49:05;;;;;;;9.73;5.10;;;2.90;99.90;;;;;;5035440;28;20576;-53
2023/03/12 06:51:31;;;;;;;5.93;5.40;;;2.90;99.90;;;;;;5068436;28;20437;-47
2023/03/12 06:53:59;;;;;;;7.27;6.13;;;2.90;99.90;;;;;;5034690;28;20341;-45
2023/03/12 06:56:25;;;;;;;6.77;5.53;;;2.90;1.00;;;;;;5035473;28;20429;-47
2023/03/12 06:58:51;;;;;;;5.70;4.77;;;3.00;1.00;;;;;;5035570;28;20423;-45
2023/03/12 07:01:16;;;;;;;7.83;6.00;;;3.00;1.00;;;;;;5034731;28;20225;-45
2023/03/12 07:03:42;;;;;;;6.23;5.60;;;2.90;1.00;;;;;;5034701;28;20504;-43
2023/03/12 07:06:16;;;;;;;7.17;6.47;;;3.00;1.00;;;;;;5034762;28;20524;-45
2023/03/12 07:08:42;;;;;;;5.70;5.20;;;3.00;1.00;;;;;;5036285;28;20258;-47
2023/03/12 07:11:07;;;;;;;10.33;7.27;;;2.90;1.00;;;;;;5033905;28;20472;-46
2023/03/12 07:13:33;;;;;;;10.17;6.33;;;2.90;23.80;;;;;;5034600;28;20819;-47
2023/03/12 07:15:59;;;;;;;8.03;5.73;;;2.80;97.90;;;;;;5035405;28;20179;-47
2023/03/12 07:18:24;;;;;;;7.80;5.43;;;2.80;99.90;;;;;;5035814;28;20175;-46
2023/03/12 07:20:51;;;;;;;6.60;5.30;;;2.90;99.90;;;;;;5035325;28;20198;-46
2023/03/12 07:23:17;;;;;;;7.67;5.50;;;2.90;69.70;;;;;;5037349;28;20440;-46
2023/03/12 07:25:43;;;;;;;6.13;5.53;;;3.00;26.70;;;;;;5039452;28;20823;-47
2023/03/12 07:28:10;;;;;;;5.60;5.10;;;3.10;46.00;;;;;;5039308;28;20297;-46
2023/03/12 07:30:37;;;;;;;7.23;6.00;;;3.10;1.00;;;;;;5071751;28;20902;-47
2023/03/12 07:33:08;;;;;;;6.10;5.50;;;3.10;16.70;;;;;;5039024;28;20463;-44
2023/03/12 07:35:34;;;;;;;7.00;6.40;;;3.10;7.90;;;;;;5053954;28;20703;-46
2023/03/12 07:38:01;;;;;;;6.63;5.77;;;3.20;38.40;;;;;;5039392;28;20405;-47
2023/03/12 07:40:27;;;;;;;9.97;8.60;;;3.30;1.00;;;;;;5038952;28;20417;-46
2023/03/12 07:42:53;;;;;;;10.50;7.60;;;3.30;1.00;;;;;;5037730;28;20657;-45
2023/03/12 07:45:19;;;;;;;8.80;6.10;;;3.30;1.00;;;;;;5039253;28;20413;-47
2023/03/12 07:47:45;;;;;;;9.17;7.17;;;3.40;29.90;;;;;;5038033;28;20206;-47
2023/03/12 07:50:11;;;;;;;8.10;7.30;;;3.60;34.90;;;;;;5038190;28;20827;-45
2023/03/12 07:52:37;;;;;;;7.43;6.73;;;3.80;1.00;;;;;;5036722;28;20428;-44
2023/03/12 07:55:03;;;;;;;7.37;6.73;;;3.90;1.00;;;;;;5034363;28;20421;-46
2023/03/12 07:57:29;;;;;;;8.40;7.10;;;4.00;99.90;;;;;;5036168;28;20182;-48
2023/03/12 07:59:54;;;;;;;7.13;6.00;;;4.20;99.90;;;;;;5037328;28;20421;-43
2023/03/12 08:02:20;;;;;;;7.77;7.00;;;4.40;99.90;;;;;;5036978;28;20453;-46
2023/03/12 08:04:46;;;;;;;7.20;6.50;;;4.50;1.00;;;;;;5036538;28;20572;-46
2023/03/12 08:07:12;;;;;;;7.90;6.23;;;4.70;1.00;;;;;;5036345;28;20461;-44
2023/03/12 08:09:38;;;;;;;7.17;6.47;;;4.90;99.90;;;;;;5070295;28;20182;-45
2023/03/12 08:12:05;;;;;;;6.63;5.93;;;5.20;99.90;;;;;;5037361;28;20528;-45
2023/03/12 08:14:31;;;;;;;9.03;7.47;;;5.40;1.00;;;;;;5037086;28;20764;-46
2023/03/12 08:16:57;;;;;;;10.63;6.77;;;5.50;99.90;;;;;;5037803;28;20463;-46
2023/03/12 08:19:23;;;;;;;10.10;7.27;;;5.60;1.00;;;;;;5038679;28;20563;-45
2023/03/12 08:21:50;;;;;;;9.10;6.27;;;5.50;99.90;;;;;;5038408;28;20532;-45
2023/03/12 08:24:16;;;;;;;12.70;7.80;;;5.50;1.00;;;;;;5036687;28;20439;-46
2023/03/12 08:26:42;;;;;;;7.80;7.00;;;5.50;42.20;;;;;;5035723;28;20794;-46
2023/03/12 08:29:08;;;;;;;9.10;7.50;;;5.50;99.90;;;;;;5034999;28;20540;-44
2023/03/12 08:31:34;;;;;;;8.97;8.07;;;5.50;1.00;;;;;;5033846;28;20222;-45
2023/03/12 08:33:59;;;;;;;8.53;7.73;;;5.60;1.00;;;;;;5033969;28;20414;-45
2023/03/12 08:36:25;;;;;;;8.93;8.00;;;5.60;99.90;;;;;;5034768;28;20174;-44
2023/03/12 08:38:51;;;;;;;8.37;7.40;;;5.70;99.90;;;;;;5034762;28;20645;-45
2023/03/12 08:41:17;;;;;;;9.00;7.60;;;5.90;1.00;;;;;;5032924;28;20480;-45
2023/03/12 08:43:42;;;;;;;9.37;8.37;;;6.10;1.00;;;;;;5033477;28;20408;-48
2023/03/12 08:46:08;;;;;;;12.57;8.90;;;6.50;1.00;;;;;;5035530;28;20186;-46
2023/03/12 08:48:34;;;;;;;12.17;9.23;;;6.60;1.00;;;;;;5033806;28;20214;-45
2023/03/12 08:51:03;;;;;;;11.10;8.80;;;6.40;1.00;;;;;;5034791;28;20425;-50
2023/03/12 08:53:29;;;;;;;9.60;8.70;;;6.50;54.70;;;;;;5037121;28;20245;-47
2023/03/12 08:55:56;;;;;;;10.07;8.50;;;6.40;60.00;;;;;;5037589;28;20448;-45
2023/03/12 08:58:23;;;;;;;11.73;5.50;;;6.10;99.90;;;;;;5035710;28;20417;-51
2023/03/12 09:00:49;;;;;;;7.70;6.90;;;6.90;1.00;;;;;;5037665;28;20468;-48
2023/03/12 09:03:16;;;;;;;10.50;6.70;;;7.60;1.00;;;;;;5034811;28;20751;-47
2023/03/12 09:05:41;;;;;;;7.00;5.57;;;8.80;1.00;;;;;;5032887;28;20436;-45
2023/03/12 09:08:08;;;;;;;9.10;7.10;;;10.00;99.90;;;;;;5033789;28;20500;-47
2023/03/12 09:10:33;;;;;;;8.03;7.23;;;10.50;1.00;;;;;;5033921;28;20603;-46
2023/03/12 09:13:01;;;;;;;8.43;7.57;;;10.30;1.00;;;;;;5033990;28;20441;-47
2023/03/12 09:15:27;;;;;;;7.73;7.03;;;9.90;1.00;;;;;;5033608;28;20185;-48
2023/03/12 09:17:54;;;;;;;7.70;6.90;;;9.60;99.90;;;;;;5033710;28;20692;-47
2023/03/12 09:20:20;;;;;;;8.40;7.20;;;9.60;99.90;;;;;;5033593;28;20576;-44
2023/03/12 09:22:47;;;;;;;7.80;6.73;;;9.50;1.00;;;;;;5033163;28;20421;-46
2023/03/12 09:25:13;;;;;;;6.53;5.93;;;9.40;99.90;;;;;;5033787;28;20405;-43
2023/03/12 09:27:44;;;;;;;6.77;6.17;;;9.30;1.00;;;;;;5032807;28;20472;-46
2023/03/12 09:30:16;;;;;;;7.03;6.23;;;8.90;1.00;;;;;;5032901;28;20461;-47
2023/03/12 09:32:44;;;;;;;7.87;7.07;;;8.60;99.90;;;;;;5066710;28;20866;-46
2023/03/12 09:35:10;;;;;;;7.87;7.03;;;8.60;1.00;;;;;;5033467;28;20411;-45
2023/03/12 09:37:36;;;;;;;9.13;8.23;;;8.30;8.70;;;;;;5032332;28;20775;-45
2023/03/12 09:40:05;;;;;;;6.60;5.90;;;8.10;99.90;;;;;;5035428;28;20483;-46
2023/03/12 09:42:40;;;;;;;7.60;6.30;;;7.90;1.00;;;;;;5036515;28;20178;-49
2023/03/12 09:45:07;;;;;;;7.80;5.50;;;7.70;1.00;;;;;;5034200;28;20434;-45
2023/03/12 09:47:35;;;;;;;6.60;5.27;;;7.60;99.90;;;;;;5035340;28;20480;-45
2023/03/12 09:50:05;;;;;;;6.40;5.50;;;7.70;99.90;;;;;;5036121;28;20512;-45
2023/03/12 09:52:35;;;;;;;9.73;5.57;;;7.80;99.90;;;;;;5034991;28;20845;-48
2023/03/12 09:55:19;;;;;;;6.10;5.50;;;7.90;90.40;;;;;;5036127;28;20482;-44
2023/03/12 09:57:46;;;;;;;13.87;8.00;;;8.00;45.10;;;;;;5036227;28;20519;-46
2023/03/12 10:00:15;;;;;;;51.93;22.87;;;8.00;14.70;;;;;;5032504;28;20409;-44
2023/03/12 10:03:08;;;;;;;5.57;4.60;;;8.10;19.60;;;;;;5035245;28;20428;-45
2023/03/12 10:05:43;;;;;;;6.13;4.83;;;8.20;69.50;;;;;;5035477;28;20424;-44
2023/03/12 10:08:57;;;;;;;5.27;4.77;;;8.50;99.90;;;;;;5036033;28;20580;-47
2023/03/12 10:11:38;;;;;;;6.70;4.70;;;9.00;1.00;;;;;;4974637;28;20443;-44
2023/03/12 10:14:39;;;;;;;5.80;4.07;;;9.50;99.90;;;;;;5034887;28;20432;-47
2023/03/12 10:17:26;;;;;;;5.70;4.37;;;9.60;99.90;;;;;;5033917;28;20830;-46
2023/03/12 10:19:55;;;;;;;4.33;3.43;;;9.90;99.90;;;;;;5034094;28;20428;-44
2023/03/12 10:22:48;;;;;;;9.47;3.70;;;9.80;1.00;;;;;;5032610;28;20513;-47
2023/03/12 10:25:26;;;;;;;3.93;3.10;;;9.70;99.90;;;;;;5034101;28;20417;-45
2023/03/12 10:27:51;;;;;;;3.63;2.90;;;9.30;1.00;;;;;;5032379;28;20562;-46
2023/03/12 10:30:22;;;;;;;3.73;3.33;;;9.40;1.00;;;;;;5032658;28;20543;-48
2023/03/12 10:32:51;;;;;;;4.70;4.07;;;9.50;1.00;;;;;;5034320;28;20183;-45
2023/03/12 10:35:19;;;;;;;3.63;2.70;;;9.50;1.00;;;;;;5034021;28;20819;-46
2023/03/12 10:37:53;;;;;;;4.40;3.20;;;9.50;1.00;;;;;;5032391;28;20570;-44
2023/03/12 10:40:24;;;;;;;3.03;2.50;;;9.50;1.00;;;;;;5031612;28;20417;-46
2023/03/12 10:42:50;;;;;;;2.87;2.10;;;9.70;1.00;;;;;;5032291;28;20413;-46
2023/03/12 10:45:54;;;;;;;2.63;2.37;;;9.90;99.90;;;;;;5032167;28;20417;-51
2023/03/12 10:48:23;;;;;;;3.70;2.77;;;10.00;1.00;;;;;;5032268;28;20230;-44
2023/03/12 10:50:59;;;;;;;1.80;1.63;;;10.20;99.90;;;;;;5034719;28;20428;-47
2023/03/12 10:53:31;;;;;;;3.00;1.87;;;10.40;1.00;;;;;;5033537;28;20443;-47
2023/03/12 10:56:00;;;;;;;1.77;1.60;;;11.00;99.90;;;;;;5034385;28;21024;-45
2023/03/12 10:58:34;;;;;;;2.10;1.57;;;11.40;1.00;;;;;;5034004;28;20530;-47
2023/03/12 11:01:02;;;;;;;2.67;1.50;;;11.90;99.90;;;;;;5038959;28;20731;-47
2023/03/12 11:03:28;;;;;;;2.63;1.73;;;12.20;1.00;;;;;;5037275;28;20649;-46
2023/03/12 11:05:57;;;;;;;3.00;1.30;;;12.40;99.90;;;;;;5037675;28;20431;-47
2023/03/12 11:08:25;;;;;;;1.50;1.03;;;12.10;99.90;;;;;;5039286;28;20894;-47
2023/03/12 11:10:52;;;;;;;2.60;1.10;;;11.90;99.90;;;;;;5040102;28;20417;-47
2023/03/12 11:13:33;;;;;;;1.60;0.80;;;11.90;99.90;;;;;;5039258;28;20448;-47
2023/03/12 11:16:01;;;;;;;1.37;0.90;;;12.20;99.90;;;;;;5037621;28;20420;-45
2023/03/12 11:18:35;;;;;;;1.47;0.90;;;12.80;99.90;;;;;;5036863;28;20432;-47
2023/03/12 11:21:10;;;;;;;2.80;1.00;;;13.20;1.00;;;;;;5039501;28;20915;-46
2023/03/12 11:23:38;;;;;;;1.67;0.90;;;13.10;1.00;;;;;;5038288;28;20906;-44
2023/03/12 11:26:15;;;;;;;1.60;1.00;;;12.80;99.90;;;;;;5036273;28;20421;-46
2023/03/12 11:29:03;;;;;;;1.10;0.83;;;12.80;1.00;;;;;;5036383;28;20464;-46
2023/03/12 11:31:40;;;;;;;1.43;0.93;;;12.70;99.90;;;;;;5036409;28;20564;-47
2023/03/12 11:34:12;;;;;;;2.30;1.03;;;12.80;1.00;;;;;;5035920;28;20755;-47
2023/03/12 11:37:10;;;;;;;1.73;0.97;;;12.80;31.30;;;;;;5035708;28;20918;-45
2023/03/12 11:39:49;;;;;;;3.53;1.10;;;12.50;99.90;;;;;;5022406;28;20418;-44
2023/03/12 11:42:27;;;;;;;2.43;1.03;;;12.30;1.00;;;;;;5037566;28;20440;-46
2023/03/12 11:45:05;;;;;;;1.57;1.10;;;12.60;99.90;;;;;;5038205;28;20415;-48
2023/03/12 11:48:02;;;;;;;2.40;1.00;;;12.70;1.00;;;;;;5038433;28;20460;-45
2023/03/12 11:50:42;;;;;;;2.50;1.10;;;12.00;90.50;;;;;;5039390;28;20406;-45
2023/03/12 11:53:35;;;;;;;2.50;1.27;;;11.70;99.90;;;;;;5037825;28;20433;-47
2023/03/12 11:56:20;;;;;;;3.27;1.30;;;11.70;99.90;;;;;;5037163;28;20417;-45
2023/03/12 11:59:06;;;;;;;2.60;1.20;;;12.00;1.00;;;;;;5036784;28;20408;-45
2023/03/12 12:01:36;;;;;;;2.40;1.30;;;12.50;99.90;;;;;;5037690;28;20812;-44
2023/03/12 12:04:34;;;;;;;2.80;1.57;;;12.80;99.90;;;;;;5036083;28;20513;-44
2023/03/12 12:07:05;;;;;;;5.60;1.80;;;12.70;1.00;;;;;;5035885;28;20464;-54
2023/03/12 12:10:01;;;;;;;4.17;1.17;;;12.60;1.00;;;;;;5036218;28;20823;-46
2023/03/12 12:12:45;;;;;;;3.30;1.40;;;13.50;72.60;;;;;;5014429;28;20433;-47
2023/03/12 12:15:26;;;;;;;4.80;1.40;;;13.50;1.00;;;;;;5036141;28;20417;-47
2023/03/12 12:18:24;;;;;;;2.70;1.63;;;13.60;1.00;;;;;;5034900;28;20477;-44
2023/03/12 12:21:06;;;;;;;2.90;1.50;;;13.60;1.00;;;;;;5036529;28;20502;-46
2023/03/12 12:23:56;;;;;;;4.33;1.40;;;13.20;1.00;;;;;;5036513;28;20413;-45
2023/03/12 12:26:36;;;;;;;5.80;2.27;;;13.40;1.00;;;;;;5035900;28;20448;-48
2023/03/12 12:29:21;;;;;;;1.73;1.20;;;14.90;99.90;;;;;;5036546;28;20452;-45
2023/03/12 12:31:57;;;;;;;4.60;1.77;;;15.60;5.70;;;;;;5035635;28;20823;-46
2023/03/12 12:34:26;;;;;;;4.53;2.00;;;14.90;8.10;;;;;;5036142;28;20846;-45
2023/03/12 12:37:30;;;;;;;3.83;1.80;;;14.20;99.90;;;;;;5036142;28;20443;-44
2023/03/12 12:40:13;;;;;;;3.30;1.83;;;13.70;99.90;;;;;;5013870;28;20417;-45
2023/03/12 12:43:06;;;;;;;3.57;1.77;;;13.30;99.90;;;;;;5035017;28;20551;-48
2023/03/12 12:45:31;;;;;;;3.90;1.63;;;13.10;99.90;;;;;;5035147;28;20431;-45
2023/03/12 12:48:17;;;;;;;4.20;1.50;;;13.00;99.90;;;;;;5034796;28;20572;-46
2023/03/12 12:50:43;;;;;;;5.70;2.33;;;13.00;99.90;;;;;;5035745;28;20531;-43
2023/03/12 12:53:25;;;;;;;5.33;2.17;;;12.90;99.90;;;;;;5035454;28;20413;-45
2023/03/12 12:56:12;;;;;;;3.50;1.77;;;12.40;1.00;;;;;;5034563;28;20429;-48
2023/03/12 12:58:56;;;;;;;3.33;2.00;;;12.20;1.00;;;;;;5035885;28;20528;-44
2023/03/12 13:01:21;;;;;;;3.90;1.80;;;12.00;1.00;;;;;;5036349;28;20447;-47
2023/03/12 13:03:48;;;;;;;6.73;2.13;;;11.90;53.40;;;;;;5036494;28;20496;-45
2023/03/12 13:06:14;;;;;;;3.93;2.07;;;11.80;99.90;;;;;;5035223;28;20182;-44
2023/03/12 13:08:42;;;;;;;4.27;1.60;;;11.90;99.90;;;;;;5036891;28;20882;-45